createdAt,value
2023-03-29T00:01:03.640Z,62.18
2023-03-29T00:03:31.825Z,62.24
2023-03-29T00:06:03.937Z,63.77
2023-03-29T00:08:38.556Z,68.23
2023-03-29T00:11:13.095Z,67.04
2023-03-29T00:13:47.224Z,63.56
2023-03-29T00:16:15.425Z,62.34
2023-03-29T00:18:44.876Z,60.98
2023-03-29T00:21:13.143Z,56.97
2023-03-29T00:23:40.991Z,52.86
2023-03-29T00:26:11.891Z,53.24
2023-03-29T00:28:39.917Z,54.57
2023-03-29T00:31:20.195Z,55.84
2023-03-29T00:33:51.681Z,57.47
2023-03-29T00:36:22.309Z,58.90
2023-03-29T00:38:50.272Z,60.14
2023-03-29T00:41:18.238Z,60.81
2023-03-29T00:44:53.487Z,61.62
2023-03-29T00:47:32.929Z,63.87
2023-03-29T00:50:36.505Z,66.99
2023-03-29T00:53:23.513Z,65.70
2023-03-29T00:56:11.915Z,62.80
2023-03-29T00:59:05.046Z,60.94
2023-03-29T01:01:46.804Z,58.15
2023-03-29T01:04:37.345Z,55.78
2023-03-29T01:07:21.942Z,57.10
2023-03-29T01:09:59.233Z,58.66
2023-03-29T01:12:36.082Z,60.27
2023-03-29T01:15:11.477Z,61.79
2023-03-29T01:17:43.424Z,64.17
2023-03-29T01:20:30.953Z,67.32
2023-03-29T01:23:21.393Z,66.20
2023-03-29T01:26:09.952Z,64.40
2023-03-29T01:28:46.898Z,63.06
2023-03-29T01:31:27.048Z,61.16
2023-03-29T01:34:09.385Z,59.78
2023-03-29T01:37:06.029Z,57.12
2023-03-29T01:39:35.131Z,55.17
2023-03-29T01:42:50.256Z,56.93
2023-03-29T01:45:34.558Z,59.18
2023-03-29T01:48:11.222Z,61.47
2023-03-29T01:50:58.708Z,64.86
2023-03-29T01:53:51.358Z,67.37
2023-03-29T01:56:26.142Z,65.36
2023-03-29T01:59:04.177Z,63.33
2023-03-29T02:01:40.945Z,61.93
2023-03-29T02:04:17.121Z,60.70
2023-03-29T02:06:47.067Z,60.29
2023-03-29T02:09:15.012Z,57.99
2023-03-29T02:11:45.349Z,55.82
2023-03-29T02:14:14.068Z,56.89
2023-03-29T02:16:42.544Z,58.11
2023-03-29T02:19:10.879Z,60.05
2023-03-29T02:22:04.352Z,61.70
2023-03-29T02:24:36.603Z,64.65
2023-03-29T02:27:05.180Z,67.80
2023-03-29T02:29:33.116Z,66.30
2023-03-29T02:32:20.428Z,65.38
2023-03-29T02:35:04.555Z,63.30
2023-03-29T02:37:36.488Z,61.46
2023-03-29T02:40:08.183Z,60.87
2023-03-29T02:42:37.747Z,59.93
2023-03-29T02:45:08.475Z,57.52
2023-03-29T02:47:43.395Z,56.35
2023-03-29T02:50:12.254Z,57.74
2023-03-29T02:52:59.326Z,60.34
2023-03-29T02:55:34.726Z,62.75
2023-03-29T02:58:10.523Z,66.60
2023-03-29T03:00:44.955Z,66.86
2023-03-29T03:03:13.488Z,64.84
2023-03-29T03:05:41.909Z,63.30
2023-03-29T03:08:10.026Z,62.03
2023-03-29T03:10:39.257Z,61.00
2023-03-29T03:13:07.252Z,60.58
2023-03-29T03:15:35.963Z,59.78
2023-03-29T03:18:04.660Z,57.53
2023-03-29T03:20:33.525Z,55.71
2023-03-29T03:23:03.480Z,56.90
2023-03-29T03:25:32.450Z,58.71
2023-03-29T03:28:00.271Z,60.72
2023-03-29T03:30:28.941Z,62.58
2023-03-29T03:32:56.844Z,66.88
2023-03-29T03:35:24.551Z,67.65
2023-03-29T03:37:52.295Z,65.95
2023-03-29T03:40:20.895Z,64.47
2023-03-29T03:42:48.709Z,63.00
2023-03-29T03:45:16.670Z,61.65
2023-03-29T03:47:44.512Z,60.68
2023-03-29T03:50:12.280Z,60.51
2023-03-29T03:52:40.027Z,58.04
2023-03-29T03:55:09.471Z,54.85
2023-03-29T03:57:40.461Z,55.09
2023-03-29T04:00:19.509Z,56.86
2023-03-29T04:02:49.056Z,58.75
2023-03-29T04:05:17.555Z,60.38
2023-03-29T04:07:45.912Z,61.91
2023-03-29T04:10:13.680Z,65.16
2023-03-29T04:12:41.857Z,68.56
2023-03-29T04:15:10.644Z,68.11
2023-03-29T04:17:38.916Z,65.84
2023-03-29T04:20:12.789Z,64.18
2023-03-29T04:22:41.341Z,62.51
2023-03-29T04:25:10.566Z,61.22
2023-03-29T04:27:38.718Z,60.44
2023-03-29T04:30:09.624Z,57.33
2023-03-29T04:32:38.290Z,55.68
2023-03-29T04:35:06.710Z,57.01
2023-03-29T04:37:34.542Z,58.51
2023-03-29T04:40:04.559Z,59.89
2023-03-29T04:42:32.373Z,61.75
2023-03-29T04:45:01.170Z,64.60
2023-03-29T04:47:29.894Z,66.83
2023-03-29T04:49:58.204Z,64.85
2023-03-29T04:52:26.611Z,62.28
2023-03-29T04:54:54.327Z,59.20
2023-03-29T04:57:22.177Z,54.52
2023-03-29T04:59:50.049Z,53.28
2023-03-29T05:02:17.956Z,53.42
2023-03-29T05:04:45.768Z,53.50
2023-03-29T05:07:15.404Z,53.32
2023-03-29T05:09:43.900Z,53.02
2023-03-29T05:12:12.115Z,53.88
2023-03-29T05:14:39.944Z,55.33
2023-03-29T05:17:08.206Z,56.87
2023-03-29T05:19:36.925Z,58.06
2023-03-29T05:22:04.702Z,59.49
2023-03-29T05:24:32.511Z,60.74
2023-03-29T05:27:00.506Z,61.59
2023-03-29T05:29:28.456Z,63.79
2023-03-29T05:31:56.271Z,67.18
2023-03-29T05:34:24.140Z,66.25
2023-03-29T05:36:52.541Z,63.85
2023-03-29T05:39:21.191Z,61.51
2023-03-29T05:41:49.069Z,58.19
2023-03-29T05:44:17.078Z,55.45
2023-03-29T05:46:44.884Z,55.89
2023-03-29T05:49:12.782Z,56.97
2023-03-29T05:51:42.247Z,58.16
2023-03-29T05:54:09.980Z,59.22
2023-03-29T05:56:38.303Z,60.13
2023-03-29T05:59:06.169Z,60.96
2023-03-29T06:01:34.982Z,61.68
2023-03-29T06:04:03.918Z,61.95
2023-03-29T06:06:32.178Z,62.49
2023-03-29T06:09:01.531Z,64.87
2023-03-29T06:11:29.345Z,65.66
2023-03-29T06:13:57.714Z,63.75
2023-03-29T06:16:26.071Z,60.46
2023-03-29T06:18:54.314Z,56.37
2023-03-29T06:21:23.101Z,54.16
2023-03-29T06:23:51.154Z,54.47
2023-03-29T06:26:19.207Z,55.68
2023-03-29T06:28:49.203Z,56.41
2023-03-29T06:31:19.936Z,57.10
2023-03-29T06:33:47.859Z,57.84
2023-03-29T06:36:16.875Z,58.36
2023-03-29T06:38:46.046Z,59.00
2023-03-29T06:41:15.030Z,59.15
2023-03-29T06:43:43.249Z,59.08
2023-03-29T06:46:12.426Z,59.34
2023-03-29T06:48:41.318Z,59.54
2023-03-29T06:51:09.087Z,59.87
2023-03-29T06:53:36.992Z,59.88
2023-03-29T06:56:09.341Z,59.48
2023-03-29T06:58:37.733Z,59.12
2023-03-29T07:01:07.239Z,59.00
2023-03-29T07:03:36.320Z,58.28
2023-03-29T07:06:10.081Z,59.10
2023-03-29T07:08:46.990Z,58.52
2023-03-29T07:11:15.502Z,58.25
2023-03-29T07:13:44.988Z,57.80
2023-03-29T07:16:13.979Z,57.87
2023-03-29T07:18:44.423Z,57.60
2023-03-29T07:21:13.376Z,57.69
2023-03-29T07:23:41.391Z,57.32
2023-03-29T07:26:10.578Z,56.32
2023-03-29T07:28:39.799Z,55.17
2023-03-29T07:31:11.756Z,53.37
2023-03-29T07:33:39.862Z,53.37
2023-03-29T07:36:08.648Z,53.93
2023-03-29T07:38:37.980Z,52.68
2023-03-29T07:41:08.113Z,52.25
2023-03-29T07:43:36.538Z,51.80
2023-03-29T07:46:10.238Z,50.54
2023-03-29T07:48:38.378Z,51.03
2023-03-29T07:51:07.276Z,51.27
2023-03-29T07:53:35.262Z,50.39
2023-03-29T07:56:03.548Z,50.21
2023-03-29T07:58:31.603Z,50.04
2023-03-29T08:01:02.712Z,50.16
2023-03-29T08:03:31.046Z,49.43
2023-03-29T08:06:03.096Z,46.78
2023-03-29T08:08:30.815Z,46.91
2023-03-29T08:10:58.616Z,46.39
2023-03-29T08:13:26.486Z,46.04
2023-03-29T08:15:54.300Z,45.93
2023-03-29T08:18:22.108Z,45.60
2023-03-29T08:20:51.887Z,44.98
2023-03-29T08:23:19.690Z,42.76
2023-03-29T08:25:47.501Z,41.49
2023-03-29T08:28:15.359Z,41.53
2023-03-29T08:30:43.171Z,40.73
2023-03-29T08:33:11.034Z,40.14
2023-03-29T08:35:39.110Z,40.28
2023-03-29T08:38:06.892Z,41.22
2023-03-29T08:40:36.253Z,41.38
2023-03-29T08:43:29.180Z,40.70
2023-03-29T08:46:09.146Z,40.38
2023-03-29T08:48:57.219Z,40.23
2023-03-29T08:51:36.678Z,40.69
2023-03-29T08:54:25.683Z,41.13
2023-03-29T08:57:04.821Z,40.67
2023-03-29T08:59:34.925Z,40.53
2023-03-29T09:02:10.171Z,39.08
2023-03-29T09:04:42.599Z,38.67
2023-03-29T09:07:12.008Z,38.96
2023-03-29T09:09:39.935Z,38.89
2023-03-29T09:12:16.755Z,38.70
2023-03-29T09:15:16.663Z,38.17
2023-03-29T09:18:15.161Z,36.63
2023-03-29T09:21:17.084Z,36.05
2023-03-29T09:24:29.899Z,35.50
2023-03-29T09:27:14.557Z,35.96
2023-03-29T09:30:10.937Z,36.07
2023-03-29T09:33:00.888Z,35.62
2023-03-29T09:35:38.740Z,34.66
2023-03-29T09:38:12.730Z,33.87
2023-03-29T09:40:49.103Z,32.99
2023-03-29T09:43:30.852Z,31.98
2023-03-29T09:46:05.199Z,31.00
2023-03-29T09:48:40.999Z,31.61
2023-03-29T09:51:10.868Z,32.81
2023-03-29T09:53:38.706Z,32.92
2023-03-29T09:56:08.681Z,33.15
2023-03-29T09:58:37.063Z,32.46
2023-03-29T10:01:09.493Z,31.69
2023-03-29T10:03:39.469Z,31.88
2023-03-29T10:06:12.315Z,32.48
2023-03-29T10:08:52.895Z,33.32
2023-03-29T10:11:27.916Z,32.90
2023-03-29T10:14:02.271Z,32.83
2023-03-29T10:16:44.878Z,33.00
2023-03-29T10:19:30.957Z,32.66
2023-03-29T10:22:02.544Z,32.15
2023-03-29T10:24:31.241Z,31.89
2023-03-29T10:27:06.979Z,32.11
2023-03-29T10:29:42.444Z,32.47
2023-03-29T10:32:37.044Z,32.52
2023-03-29T10:35:34.128Z,32.31
2023-03-29T10:38:09.391Z,32.05
2023-03-29T10:40:48.363Z,32.25
2023-03-29T10:43:32.865Z,32.11
2023-03-29T10:46:33.492Z,31.46
2023-03-29T10:49:10.360Z,31.01
2023-03-29T10:51:38.177Z,31.79
2023-03-29T10:54:13.312Z,32.09
2023-03-29T10:56:50.743Z,32.41
2023-03-29T10:59:32.887Z,31.95
2023-03-29T11:02:26.232Z,32.00
2023-03-29T11:05:25.722Z,32.07
2023-03-29T11:08:31.866Z,31.90
2023-03-29T11:11:16.368Z,32.47
2023-03-29T11:14:15.837Z,32.70
2023-03-29T11:17:02.988Z,31.75
2023-03-29T11:20:14.589Z,31.68
2023-03-29T11:22:56.109Z,32.07
2023-03-29T11:25:42.181Z,32.46
2023-03-29T11:28:42.310Z,32.24
2023-03-29T11:31:29.530Z,32.05
2023-03-29T11:34:31.614Z,31.66
2023-03-29T11:37:02.797Z,32.33
2023-03-29T11:39:58.326Z,32.72
2023-03-29T11:42:34.161Z,32.96
2023-03-29T11:45:05.161Z,33.11
2023-03-29T11:47:39.060Z,33.44
2023-03-29T11:50:35.331Z,33.67
2023-03-29T11:53:21.466Z,33.77
2023-03-29T11:55:52.718Z,34.47
2023-03-29T11:58:33.179Z,34.64
2023-03-29T12:01:10.430Z,34.69
2023-03-29T12:03:54.497Z,34.92
2023-03-29T12:06:59.176Z,35.07
2023-03-29T12:09:40.202Z,35.00
2023-03-29T12:12:17.888Z,35.64
2023-03-29T12:15:03.461Z,35.81
2023-03-29T12:17:39.422Z,36.12
2023-03-29T12:20:31.419Z,36.39
2023-03-29T12:22:59.384Z,36.25
2023-03-29T12:25:33.801Z,36.18
2023-03-29T12:28:26.093Z,36.45
2023-03-29T12:31:31.396Z,36.92
2023-03-29T12:34:31.135Z,37.09
2023-03-29T12:37:39.493Z,37.57
2023-03-29T12:40:19.107Z,37.67
2023-03-29T12:43:09.013Z,37.77
2023-03-29T12:45:54.200Z,37.32
2023-03-29T12:48:30.221Z,37.30
2023-03-29T12:51:05.077Z,37.72
2023-03-29T12:53:39.965Z,38.17
2023-03-29T12:56:17.509Z,37.79
2023-03-29T12:59:10.217Z,37.38
2023-03-29T13:01:43.400Z,37.63
2023-03-29T13:04:22.508Z,37.73
2023-03-29T13:07:03.630Z,38.16
2023-03-29T13:09:36.831Z,38.14
2023-03-29T13:12:21.603Z,38.29
2023-03-29T13:14:55.322Z,37.87
2023-03-29T13:17:52.066Z,37.20
2023-03-29T13:20:45.796Z,36.48
2023-03-29T13:23:28.727Z,36.71
2023-03-29T13:26:14.515Z,37.33
2023-03-29T13:29:22.611Z,37.54
2023-03-29T13:32:00.171Z,37.81
2023-03-29T13:35:06.453Z,38.43
2023-03-29T13:37:54.354Z,38.61
2023-03-29T13:40:54.722Z,38.78
2023-03-29T13:43:37.890Z,39.07
2023-03-29T13:46:43.840Z,38.62
2023-03-29T13:49:20.556Z,39.01
2023-03-29T13:51:54.431Z,39.34
2023-03-29T13:54:37.532Z,39.51
2023-03-29T13:57:16.530Z,39.42
2023-03-29T14:00:01.637Z,39.52
2023-03-29T14:02:54.161Z,39.49
2023-03-29T14:05:30.929Z,39.56
2023-03-29T14:08:28.397Z,39.31
2023-03-29T14:11:00.269Z,39.12
2023-03-29T14:13:29.870Z,39.29
2023-03-29T14:16:12.275Z,39.48
2023-03-29T14:18:42.506Z,39.43
2023-03-29T14:21:14.715Z,39.85
2023-03-29T14:23:46.937Z,40.19
2023-03-29T14:26:23.334Z,40.51
2023-03-29T14:28:57.542Z,40.91
2023-03-29T14:31:34.375Z,40.93
2023-03-29T14:34:07.065Z,41.01
2023-03-29T14:36:36.732Z,41.28
2023-03-29T14:39:11.699Z,41.46
2023-03-29T14:41:46.781Z,41.49
2023-03-29T14:44:15.691Z,41.11
2023-03-29T14:46:46.894Z,41.24
2023-03-29T14:49:19.157Z,41.66
2023-03-29T14:51:49.278Z,41.59
2023-03-29T14:54:22.260Z,41.87
2023-03-29T14:56:51.638Z,42.39
2023-03-29T14:59:25.948Z,42.52
2023-03-29T15:01:54.562Z,42.55
2023-03-29T15:04:22.621Z,42.73
2023-03-29T15:06:52.628Z,42.92
2023-03-29T15:09:30.144Z,42.91
2023-03-29T15:12:00.463Z,42.85
2023-03-29T15:14:38.243Z,43.00
2023-03-29T15:17:47.639Z,42.99
2023-03-29T15:20:28.073Z,43.08
2023-03-29T15:23:08.616Z,43.22
2023-03-29T15:25:47.768Z,43.31
2023-03-29T15:28:28.458Z,43.30
2023-03-29T15:31:20.903Z,43.58
2023-03-29T15:33:48.936Z,43.77
2023-03-29T15:36:17.219Z,43.91
2023-03-29T15:38:50.621Z,44.28
2023-03-29T15:41:18.714Z,44.55
2023-03-29T15:43:46.929Z,44.65
2023-03-29T15:46:14.943Z,44.95
2023-03-29T15:48:43.128Z,45.07
2023-03-29T15:51:12.763Z,45.07
2023-03-29T15:53:41.359Z,45.21
2023-03-29T15:56:17.273Z,45.37
2023-03-29T15:58:46.767Z,45.57
2023-03-29T16:01:34.689Z,45.85
2023-03-29T16:04:12.544Z,45.91
2023-03-29T16:06:41.654Z,46.05
2023-03-29T16:09:12.159Z,46.33
2023-03-29T16:11:42.727Z,46.51
2023-03-29T16:14:27.450Z,46.38
2023-03-29T16:16:58.275Z,46.27
2023-03-29T16:19:28.877Z,46.47
2023-03-29T16:21:58.811Z,46.68
2023-03-29T16:24:31.504Z,46.85
2023-03-29T16:27:01.399Z,47.02
2023-03-29T16:29:30.268Z,47.22
2023-03-29T16:31:58.927Z,47.26
2023-03-29T16:34:27.609Z,47.44
2023-03-29T16:36:55.917Z,47.38
2023-03-29T16:39:24.026Z,47.42
2023-03-29T16:41:52.184Z,47.45
2023-03-29T16:44:24.429Z,47.46
2023-03-29T16:46:54.544Z,47.51
2023-03-29T16:49:24.612Z,47.60
2023-03-29T16:51:52.615Z,47.82
2023-03-29T16:54:20.779Z,47.75
2023-03-29T16:56:50.246Z,47.80
2023-03-29T16:59:18.505Z,47.99
2023-03-29T17:01:47.070Z,48.14
2023-03-29T17:04:15.150Z,48.22
2023-03-29T17:06:44.426Z,48.34
2023-03-29T17:09:29.313Z,48.49
2023-03-29T17:11:58.079Z,48.65
2023-03-29T17:14:26.776Z,48.72
2023-03-29T17:16:55.505Z,48.90
2023-03-29T17:19:23.487Z,49.01
2023-03-29T17:21:51.543Z,49.16
2023-03-29T17:24:19.885Z,49.31
2023-03-29T17:26:47.970Z,49.43
2023-03-29T17:29:15.852Z,49.55
2023-03-29T17:31:48.052Z,49.74
2023-03-29T17:34:21.283Z,49.73
2023-03-29T17:36:49.314Z,49.81
2023-03-29T17:39:18.943Z,49.83
2023-03-29T17:41:47.836Z,50.00
2023-03-29T17:44:18.330Z,50.06
2023-03-29T17:46:46.880Z,50.25
2023-03-29T17:49:15.191Z,50.52
2023-03-29T17:51:44.041Z,50.61
2023-03-29T17:54:17.251Z,50.48
2023-03-29T17:56:54.691Z,50.52
2023-03-29T17:59:23.177Z,50.83
2023-03-29T18:01:51.847Z,51.05
2023-03-29T18:04:20.087Z,51.19
2023-03-29T18:06:50.874Z,51.21
2023-03-29T18:09:18.700Z,51.23
2023-03-29T18:11:46.660Z,51.39
2023-03-29T18:14:14.563Z,51.51
2023-03-29T18:16:42.389Z,51.63
2023-03-29T18:19:11.075Z,51.83
2023-03-29T18:21:40.449Z,51.94
2023-03-29T18:24:11.759Z,51.96
2023-03-29T18:26:39.610Z,52.00
2023-03-29T18:29:09.862Z,52.05
2023-03-29T18:31:47.071Z,51.97
2023-03-29T18:34:15.702Z,52.02
2023-03-29T18:36:43.912Z,52.20
2023-03-29T18:39:20.929Z,52.29
2023-03-29T18:41:50.937Z,52.25
2023-03-29T18:44:19.125Z,52.40
2023-03-29T18:46:49.689Z,52.38
2023-03-29T18:49:21.609Z,52.45
2023-03-29T18:51:50.202Z,52.45
2023-03-29T18:54:21.202Z,52.67
2023-03-29T18:56:49.476Z,52.69
2023-03-29T18:59:18.148Z,52.77
2023-03-29T19:01:46.547Z,52.83
2023-03-29T19:04:14.627Z,53.09
2023-03-29T19:06:42.714Z,53.17
2023-03-29T19:09:10.969Z,53.45
2023-03-29T19:11:45.826Z,53.60
2023-03-29T19:14:15.141Z,53.76
2023-03-29T19:16:43.403Z,53.97
2023-03-29T19:19:11.367Z,54.14
2023-03-29T19:21:39.374Z,54.28
2023-03-29T19:24:07.981Z,54.24
2023-03-29T19:26:37.208Z,54.26
2023-03-29T19:29:08.737Z,54.15
2023-03-29T19:31:38.257Z,54.34
2023-03-29T19:34:09.701Z,54.40
2023-03-29T19:36:38.230Z,54.44
2023-03-29T19:39:06.377Z,54.61
2023-03-29T19:41:34.273Z,54.81
2023-03-29T19:44:02.151Z,54.93
2023-03-29T19:46:29.956Z,55.06
2023-03-29T19:48:59.833Z,55.07
2023-03-29T19:51:28.430Z,55.09
2023-03-29T19:53:57.142Z,55.09
2023-03-29T19:56:26.495Z,55.05
2023-03-29T19:58:54.272Z,55.16
2023-03-29T20:01:22.456Z,55.26
2023-03-29T20:03:50.955Z,55.36
2023-03-29T20:06:21.539Z,55.44
2023-03-29T20:08:49.657Z,55.48
2023-03-29T20:11:19.986Z,55.52
2023-03-29T20:13:47.906Z,55.50
2023-03-29T20:16:18.811Z,55.59
2023-03-29T20:18:46.891Z,55.67
2023-03-29T20:21:19.064Z,55.81
2023-03-29T20:23:47.279Z,55.82
2023-03-29T20:26:15.481Z,55.81
2023-03-29T20:28:44.528Z,55.81
2023-03-29T20:31:12.986Z,55.86
2023-03-29T20:33:44.558Z,55.90
2023-03-29T20:36:13.380Z,55.91
2023-03-29T20:38:41.441Z,56.03
2023-03-29T20:41:09.534Z,56.06
2023-03-29T20:43:40.052Z,56.08
2023-03-29T20:46:23.068Z,56.09
2023-03-29T20:48:53.953Z,56.09
2023-03-29T20:51:42.946Z,56.21
2023-03-29T20:54:13.699Z,56.20
2023-03-29T20:56:42.809Z,56.42
2023-03-29T20:59:15.509Z,56.39
2023-03-29T21:01:47.283Z,56.44
2023-03-29T21:04:16.284Z,56.54
2023-03-29T21:06:45.858Z,56.55
2023-03-29T21:09:13.753Z,56.65
2023-03-29T21:11:41.562Z,56.66
2023-03-29T21:14:11.134Z,56.75
2023-03-29T21:16:41.793Z,56.75
2023-03-29T21:19:10.312Z,56.86
2023-03-29T21:21:38.085Z,56.86
2023-03-29T21:24:06.633Z,56.85
2023-03-29T21:26:37.224Z,56.90
2023-03-29T21:29:05.211Z,56.90
2023-03-29T21:31:33.387Z,57.00
2023-03-29T21:34:01.853Z,57.00
2023-03-29T21:36:30.720Z,57.08
2023-03-29T21:38:58.685Z,57.13
2023-03-29T21:41:27.323Z,57.18
2023-03-29T21:43:55.508Z,57.28
2023-03-29T21:46:24.841Z,57.27
2023-03-29T21:48:52.883Z,57.34
2023-03-29T21:51:20.802Z,57.39
2023-03-29T21:53:48.617Z,57.47
2023-03-29T21:56:16.451Z,57.50
2023-03-29T21:58:44.385Z,57.52
2023-03-29T22:01:12.184Z,57.56
2023-03-29T22:03:39.975Z,57.58
2023-03-29T22:06:09.738Z,57.58
2023-03-29T22:08:40.641Z,57.67
2023-03-29T22:11:15.669Z,57.65
2023-03-29T22:13:44.756Z,57.69
2023-03-29T22:16:14.290Z,57.76
2023-03-29T22:18:42.673Z,57.80
2023-03-29T22:21:17.722Z,57.79
2023-03-29T22:23:54.748Z,57.88
2023-03-29T22:26:27.835Z,57.83
2023-03-29T22:28:57.344Z,57.83
2023-03-29T22:31:27.525Z,57.80
2023-03-29T22:33:56.515Z,57.83
2023-03-29T22:36:28.121Z,57.87
2023-03-29T22:38:56.646Z,57.91
2023-03-29T22:41:27.751Z,57.96
2023-03-29T22:44:01.138Z,58.00
2023-03-29T22:46:29.914Z,57.98
2023-03-29T22:48:57.844Z,58.04
2023-03-29T22:51:25.821Z,58.12
2023-03-29T22:53:53.649Z,58.11
2023-03-29T22:56:22.245Z,58.16
2023-03-29T22:58:50.690Z,58.14
2023-03-29T23:01:19.080Z,58.23
2023-03-29T23:03:47.109Z,58.30
2023-03-29T23:06:15.779Z,58.38
2023-03-29T23:08:43.950Z,58.37
2023-03-29T23:11:12.370Z,58.46
2023-03-29T23:13:40.667Z,58.48
2023-03-29T23:16:08.630Z,58.56
2023-03-29T23:18:37.753Z,58.67
2023-03-29T23:21:06.466Z,58.72
2023-03-29T23:23:35.849Z,58.69
2023-03-29T23:26:04.730Z,58.81
2023-03-29T23:28:34.793Z,58.92
2023-03-29T23:31:11.647Z,58.97
2023-03-29T23:33:42.755Z,58.90
2023-03-29T23:36:14.853Z,59.10
2023-03-29T23:38:46.114Z,59.27
2023-03-29T23:41:13.961Z,59.20
2023-03-29T23:43:44.052Z,59.34
2023-03-29T23:46:17.030Z,59.52
2023-03-29T23:48:47.323Z,59.74
2023-03-29T23:51:18.952Z,60.04
2023-03-29T23:53:49.020Z,59.99
2023-03-29T23:56:16.964Z,60.06
2023-03-29T23:58:44.848Z,60.46
